»·PEaware :: N101JP KPSP-KBUR

N101JP :: KPSP-KBUR

FLIGHT INFORMATION

Flight Status: Arrived
Operator: Privately registered:
United States
More flights under this callsign
Pilot: James T. (870)
Aircraft: PILATUS PC-12 EAGLE
(PC12)
More flights by this aircraft type
Origin: KPSP Palm Springs Intl
United States
Destination: KBUR Bob Hope-Burbank
United States
More flights between these airports :: More routes between these airports
Route: +CATH1 PSP V388 PDZ V197 POM V264 ITSME V186 VNY
File this flight plan on PilotEdge
Remarks:
Altitude:
(Current/Filed)
120ft
Speed:
(Current/Filed)
200kts
Departed: 27-Feb-15 05:19 PM
Arrived: 27-Feb-15 06:09 PM
Distance/Time
Traveled:
95nm/0:50
Distance/Time
To Go:
Arrived

Flight Plot

Page will automatically refresh every two minutes.


Map Options




Map Legend


Flown Route
Filed Route
Departure Airport
Arrival Airport
Navaid (VOR, NDB)
Fix

Horizontal Profiles

Position Reports

Time Latitude Longitude Heading Altitude Ground
Speed
27-Feb-15 16:55 33.826915 -116.500443 320 483ft 0kts
27-Feb-15 16:56 33.826915 -116.500443 320 483ft 0kts
27-Feb-15 16:57 33.826915 -116.500443 320 483ft 0kts
27-Feb-15 16:58 33.826915 -116.500443 320 483ft 0kts
27-Feb-15 16:59 33.826915 -116.500443 320 483ft 0kts
27-Feb-15 17:00 33.826915 -116.500443 320 483ft 0kts
27-Feb-15 17:01 33.826915 -116.500443 320 483ft 0kts
27-Feb-15 17:02 33.826915 -116.500443 320 483ft 0kts
27-Feb-15 17:03 33.826915 -116.500443 320 483ft 0kts
27-Feb-15 17:04 33.827003 -116.500555 305 483ft 0kts
27-Feb-15 17:05 33.827049 -116.500780 288 482ft 0kts
27-Feb-15 17:06 33.825724 -116.500226 143 482ft 12kts
27-Feb-15 17:07 33.823975 -116.500574 215 483ft 8kts
27-Feb-15 17:08 33.821414 -116.498679 143 482ft 11kts
27-Feb-15 17:09 33.819241 -116.497052 273 483ft 0kts
27-Feb-15 17:10 33.819230 -116.497116 251 483ft 0kts
27-Feb-15 17:11 33.819230 -116.497116 251 483ft 0kts
27-Feb-15 17:12 33.819193 -116.498225 304 482ft 7kts
27-Feb-15 17:13 33.833915 -116.510623 327 889ft 131kts
27-Feb-15 17:14 33.864666 -116.539634 322 2464ft 147kts
27-Feb-15 17:15 33.895546 -116.568900 326 4047ft 147kts
27-Feb-15 17:16 33.908728 -116.536646 119 5541ft 185kts
27-Feb-15 17:17 33.884925 -116.482701 111 7028ft 184kts
27-Feb-15 17:18 33.865060 -116.427360 110 8421ft 183kts
27-Feb-15 17:19 33.844192 -116.372606 113 9715ft 183kts
27-Feb-15 17:20 33.824176 -116.316663 106 10980ft 186kts
27-Feb-15 17:21 33.800025 -116.260547 117 11981ft 208kts
27-Feb-15 17:22 33.751324 -116.249379 250 11989ft 230kts
27-Feb-15 17:23 33.775762 -116.311180 310 11996ft 222kts
27-Feb-15 17:24 33.818367 -116.364117 318 12004ft 224kts
27-Feb-15 17:25 33.862811 -116.415146 318 12011ft 223kts
27-Feb-15 17:26 33.886875 -116.481887 289 12016ft 229kts
27-Feb-15 17:27 33.903397 -116.553146 290 12010ft 228kts
27-Feb-15 17:28 33.920396 -116.623830 290 12009ft 227kts
27-Feb-15 17:29 33.937509 -116.693626 290 12032ft 228kts
27-Feb-15 17:30 33.947754 -116.765527 271 12062ft 235kts
27-Feb-15 17:31 33.945002 -116.842103 270 12114ft 237kts
27-Feb-15 17:32 33.942200 -116.915957 269 12141ft 240kts
27-Feb-15 17:33 33.939334 -116.990834 269 12020ft 244kts
27-Feb-15 17:34 33.936455 -117.065345 270 12020ft 243kts
27-Feb-15 17:35 33.933790 -117.140333 269 12020ft 243kts
27-Feb-15 17:36 33.931582 -117.204094 269 12020ft 245kts
27-Feb-15 17:37 33.928700 -117.281517 268 12020ft 248kts
27-Feb-15 17:38 33.925706 -117.358055 267 12020ft 248kts
27-Feb-15 17:39 33.922551 -117.435371 268 12023ft 248kts
27-Feb-15 17:40 33.919371 -117.511854 268 12026ft 245kts
27-Feb-15 17:41 33.947077 -117.575153 305 12027ft 238kts
27-Feb-15 17:42 33.982131 -117.631698 305 12026ft 237kts
27-Feb-15 17:43 34.017098 -117.688214 305 12028ft 238kts
27-Feb-15 17:44 34.052967 -117.746263 305 12034ft 239kts
27-Feb-15 17:45 34.077925 -117.809680 264 12053ft 238kts
27-Feb-15 17:46 34.076804 -117.876970 268 12048ft 239kts
27-Feb-15 17:47 34.075681 -117.950317 268 12044ft 239kts
27-Feb-15 17:48 34.080686 -118.023476 293 10798ft 242kts
27-Feb-15 17:49 34.102701 -118.095259 288 9352ft 237kts
27-Feb-15 17:50 34.124686 -118.165988 287 7927ft 235kts
27-Feb-15 17:51 34.137922 -118.240141 274 6468ft 234kts
27-Feb-15 17:52 34.145157 -118.317771 273 4969ft 231kts
27-Feb-15 17:53 34.151854 -118.391338 273 3997ft 202kts
27-Feb-15 17:54 34.157505 -118.453614 274 4010ft 176kts
27-Feb-15 17:55 34.162510 -118.510533 274 4012ft 167kts
27-Feb-15 17:56 34.167053 -118.564898 274 4013ft 159kts
27-Feb-15 17:57 34.189150 -118.599013 18 3396ft 162kts
27-Feb-15 17:58 34.200071 -118.554640 91 3007ft 136kts
27-Feb-15 17:59 34.199540 -118.512504 92 3009ft 121kts
27-Feb-15 18:00 34.199084 -118.469974 93 2472ft 134kts
27-Feb-15 18:01 34.198573 -118.426619 93 1767ft 126kts
27-Feb-15 18:02 34.198125 -118.386172 93 1114ft 117kts
27-Feb-15 18:03 34.197704 -118.357238 103 784ft 7kts
27-Feb-15 18:04 34.198543 -118.355336 347 784ft 0kts

Navigation Log

Ident Type
Flight plan parsing failed, navigation log unavailable